Time;durP1;ratioP1;P1;durP2;ratioP2;P2;SDS_P1;SDS_P2;PMS_P1;PMS_P2;Temp;Humidity;BMP_temperature;BMP_pressure;BME280_temperature;BME280_humidity;BME280_pressure;Samples;Min_cycle;Max_cycle;Signal;HPM_P1;HPM_P2
2022/11/07 00:00:14;;;;;;;4.90;2.80;;;16.90;99.90;;;;;;4145556;28;20719;-72
2022/11/07 00:02:16;;;;;;;3.63;2.80;;;16.90;99.90;;;;;;4145232;28;20221;-72
2022/11/07 00:04:18;;;;;;;3.45;2.13;;;16.90;99.90;;;;;;4144597;28;20287;-74
2022/11/07 00:06:21;;;;;;;4.75;2.85;;;16.90;99.90;;;;;;4144880;28;20220;-72
2022/11/07 00:08:30;;;;;;;4.43;2.33;;;16.90;99.90;;;;;;4147248;28;20221;-72
2022/11/07 00:10:32;;;;;;;3.95;2.30;;;16.90;99.90;;;;;;4147071;28;20364;-73
2022/11/07 00:12:35;;;;;;;4.32;2.65;;;16.90;99.90;;;;;;4145082;28;20661;-73
2022/11/07 00:14:37;;;;;;;3.28;2.22;;;16.90;99.90;;;;;;4145628;28;20221;-73
2022/11/07 00:16:40;;;;;;;3.50;2.38;;;16.90;99.90;;;;;;4145371;28;20275;-73
2022/11/07 00:18:42;;;;;;;4.07;2.38;;;16.80;99.90;;;;;;4147140;28;20689;-73
2022/11/07 00:20:44;;;;;;;5.22;2.63;;;16.90;99.90;;;;;;4153948;28;20233;-73
2022/11/07 00:22:47;;;;;;;3.13;2.03;;;16.90;99.90;;;;;;4150687;28;20746;-73
2022/11/07 00:24:50;;;;;;;3.13;2.25;;;16.90;99.90;;;;;;4149814;28;20220;-73
2022/11/07 00:26:53;;;;;;;3.47;2.40;;;16.80;99.90;;;;;;4150702;28;20221;-73
2022/11/07 00:28:55;;;;;;;3.35;2.40;;;16.90;99.90;;;;;;4142640;28;20217;-73
2022/11/07 00:30:58;;;;;;;4.03;2.42;;;16.90;99.90;;;;;;4147696;28;20358;-73
2022/11/07 00:33:01;;;;;;;3.25;2.20;;;16.80;99.90;;;;;;4151781;28;20224;-73
2022/11/07 00:35:04;;;;;;;4.88;2.67;;;16.80;99.90;;;;;;4153431;28;20220;-73
2022/11/07 00:37:06;;;;;;;3.67;2.55;;;16.90;99.90;;;;;;4151378;28;20264;-73
2022/11/07 00:39:10;;;;;;;6.03;2.65;;;16.90;99.90;;;;;;4151948;28;20720;-73
2022/11/07 00:41:14;;;;;;;3.67;2.25;;;16.90;99.90;;;;;;4153626;28;20554;-73
2022/11/07 00:43:17;;;;;;;4.07;2.40;;;16.80;99.90;;;;;;4150350;28;20283;-73
2022/11/07 00:45:19;;;;;;;4.03;2.60;;;16.80;99.90;;;;;;4151645;28;20731;-72
2022/11/07 00:47:21;;;;;;;3.58;2.33;;;16.90;99.90;;;;;;4149501;28;20217;-73
2022/11/07 00:49:24;;;;;;;3.92;2.22;;;16.80;99.90;;;;;;4149223;28;20627;-73
2022/11/07 00:51:28;;;;;;;4.18;2.60;;;16.80;99.90;;;;;;4148017;28;20213;-73
2022/11/07 00:53:30;;;;;;;3.45;2.40;;;16.90;99.90;;;;;;4151832;28;20263;-74
2022/11/07 00:55:33;;;;;;;3.88;2.15;;;16.80;99.90;;;;;;4150729;28;20228;-73
2022/11/07 00:57:36;;;;;;;3.65;2.47;;;16.80;99.90;;;;;;4148251;28;20212;-73
2022/11/07 00:59:39;;;;;;;5.57;2.65;;;16.90;99.90;;;;;;4144492;28;20249;-74
2022/11/07 01:01:41;;;;;;;4.55;2.65;;;16.90;99.90;;;;;;4150683;28;20595;-73
2022/11/07 01:06:04;;;;;;;3.53;2.05;;;16.80;99.90;;;;;;4150707;28;20973;-74
2022/11/07 01:08:07;;;;;;;3.20;2.20;;;16.90;99.90;;;;;;4149388;28;20273;-73
2022/11/07 01:10:09;;;;;;;5.78;2.70;;;16.90;99.90;;;;;;4146900;28;20216;-73
2022/11/07 01:12:12;;;;;;;5.28;2.55;;;16.90;99.90;;;;;;4149981;28;20267;-74
2022/11/07 01:14:17;;;;;;;4.57;2.30;;;16.90;99.90;;;;;;4146408;28;20275;-74
2022/11/07 01:16:19;;;;;;;4.57;2.53;;;16.90;99.90;;;;;;4151279;28;20224;-73
2022/11/07 01:18:22;;;;;;;4.47;2.47;;;16.90;99.90;;;;;;4143976;28;20222;-73
2022/11/07 01:20:24;;;;;;;4.32;2.47;;;16.90;99.90;;;;;;4150249;28;20697;-73
2022/11/07 01:22:26;;;;;;;3.28;2.15;;;16.80;99.90;;;;;;4147784;28;20221;-74
2022/11/07 01:24:29;;;;;;;5.13;2.38;;;16.90;99.90;;;;;;4144028;28;20714;-73
2022/11/07 01:26:31;;;;;;;3.60;2.20;;;16.90;99.90;;;;;;4144330;28;20217;-73
2022/11/07 01:28:34;;;;;;;4.18;2.40;;;16.90;99.90;;;;;;4145572;28;20232;-74
2022/11/07 01:30:40;;;;;;;6.65;2.63;;;16.90;99.90;;;;;;4142670;28;20712;-74
2022/11/07 01:32:42;;;;;;;4.00;2.20;;;16.90;99.90;;;;;;4144023;28;20347;-73
2022/11/07 01:34:45;;;;;;;4.22;2.22;;;16.90;99.90;;;;;;4144896;28;20624;-73
2022/11/07 01:36:47;;;;;;;5.15;2.75;;;16.90;99.90;;;;;;4144535;28;20213;-73
2022/11/07 01:38:49;;;;;;;4.72;2.10;;;16.80;99.90;;;;;;4143938;28;20221;-73
2022/11/07 01:43:12;;;;;;;3.75;2.28;;;16.90;99.90;;;;;;4144461;28;20201;-73
2022/11/07 01:45:19;;;;;;;2.72;2.10;;;16.90;99.90;;;;;;4144918;28;20263;-73
2022/11/07 01:47:26;;;;;;;4.28;2.15;;;16.90;99.90;;;;;;4144904;28;20228;-73
2022/11/07 01:49:33;;;;;;;4.18;2.30;;;16.90;99.90;;;;;;4144810;28;20263;-73
2022/11/07 01:51:41;;;;;;;3.92;2.70;;;16.90;99.90;;;;;;4143835;28;20286;-74
2022/11/07 01:53:44;;;;;;;6.45;2.60;;;16.90;99.90;;;;;;4144527;28;20703;-73
2022/11/07 01:55:46;;;;;;;2.85;2.10;;;16.90;99.90;;;;;;4143846;28;20217;-73
2022/11/07 01:57:52;;;;;;;2.42;2.10;;;16.90;99.90;;;;;;4143763;28;20267;-74
2022/11/07 01:59:57;;;;;;;4.80;2.45;;;16.90;99.90;;;;;;4143290;28;20541;-73
2022/11/07 02:02:00;;;;;;;5.18;2.20;;;16.80;99.90;;;;;;4144945;28;20228;-74
2022/11/07 02:04:05;;;;;;;3.05;2.10;;;16.90;99.90;;;;;;4144230;28;20759;-73
2022/11/07 02:06:13;;;;;;;4.63;2.33;;;16.80;99.90;;;;;;4144046;28;20217;-72
2022/11/07 02:08:16;;;;;;;3.97;2.10;;;16.80;99.90;;;;;;4143993;28;20217;-73
2022/11/07 02:10:19;;;;;;;4.07;2.25;;;16.90;99.90;;;;;;4143609;28;20217;-73
2022/11/07 02:12:24;;;;;;;5.68;2.55;;;16.90;99.90;;;;;;4143698;28;20283;-70
2022/11/07 02:14:29;;;;;;;3.78;2.40;;;16.90;99.90;;;;;;4144249;28;20574;-72
2022/11/07 02:16:32;;;;;;;7.35;2.60;;;16.90;99.90;;;;;;4144550;28;20724;-73
2022/11/07 02:18:37;;;;;;;3.30;2.40;;;16.90;99.90;;;;;;4143101;28;20275;-73
2022/11/07 02:20:40;;;;;;;5.28;2.45;;;16.90;99.90;;;;;;4143304;28;20291;-73
2022/11/07 02:22:48;;;;;;;5.10;2.60;;;16.90;99.90;;;;;;4144731;28;20267;-73
2022/11/07 02:24:55;;;;;;;5.05;2.20;;;16.90;99.90;;;;;;4142866;28;20224;-73
2022/11/07 02:26:59;;;;;;;4.30;2.58;;;16.90;99.90;;;;;;4143758;28;20221;-72
2022/11/07 02:29:05;;;;;;;5.93;2.47;;;16.90;99.90;;;;;;4142727;28;20220;-72
2022/11/07 02:31:07;;;;;;;4.45;2.28;;;16.90;99.90;;;;;;4144648;28;20225;-73
2022/11/07 02:33:20;;;;;;;4.22;2.38;;;16.90;99.90;;;;;;4150566;28;20224;-72
2022/11/07 02:35:46;;;;;;;6.63;2.08;;;16.90;99.90;;;;;;4150079;28;20224;-72
2022/11/07 02:37:49;;;;;;;5.85;2.50;;;16.80;99.90;;;;;;4129192;28;20225;-72
2022/11/07 02:39:55;;;;;;;4.80;2.50;;;16.90;99.90;;;;;;4148575;28;20327;-72
2022/11/07 02:42:00;;;;;;;2.67;2.08;;;16.90;99.90;;;;;;4146884;28;20213;-72
2022/11/07 02:44:07;;;;;;;3.03;2.40;;;16.90;99.90;;;;;;4147701;28;20715;-72
2022/11/07 02:46:11;;;;;;;3.70;2.10;;;16.90;99.90;;;;;;4148079;28;20296;-72
2022/11/07 02:48:13;;;;;;;5.82;2.30;;;16.90;99.90;;;;;;4148637;28;20584;-72
2022/11/07 02:50:16;;;;;;;4.90;2.25;;;16.90;99.90;;;;;;4154791;28;20221;-72
2022/11/07 02:52:18;;;;;;;4.75;2.30;;;16.90;99.90;;;;;;4154334;28;20638;-72
2022/11/07 02:54:21;;;;;;;4.43;2.30;;;16.90;99.90;;;;;;4150935;28;20679;-72
2022/11/07 02:56:25;;;;;;;3.72;2.20;;;16.80;99.90;;;;;;4155105;28;20607;-73
2022/11/07 02:58:27;;;;;;;5.05;1.92;;;16.90;99.90;;;;;;4154097;28;20275;-72
2022/11/07 03:00:29;;;;;;;4.85;2.53;;;16.90;99.90;;;;;;4150587;28;20780;-73
2022/11/07 03:02:32;;;;;;;4.70;2.40;;;16.90;99.90;;;;;;4150324;28;20228;-72
2022/11/07 03:04:34;;;;;;;5.68;2.47;;;16.90;99.90;;;;;;4153335;28;20252;-72
2022/11/07 03:06:36;;;;;;;3.47;2.05;;;16.90;99.90;;;;;;4146350;28;20268;-72
2022/11/07 03:08:38;;;;;;;6.65;2.58;;;16.90;99.90;;;;;;4152189;28;20271;-72
2022/11/07 03:10:41;;;;;;;4.88;2.38;;;16.80;99.90;;;;;;4151403;28;20291;-72
2022/11/07 03:12:45;;;;;;;7.00;2.80;;;16.80;99.90;;;;;;4151052;28;20267;-72
2022/11/07 03:14:47;;;;;;;4.20;2.10;;;16.90;99.90;;;;;;4150715;28;20696;-72
2022/11/07 03:16:49;;;;;;;5.13;2.50;;;16.90;99.90;;;;;;4148241;28;20221;-72
2022/11/07 03:18:51;;;;;;;5.63;2.38;;;16.80;99.90;;;;;;4149918;28;20288;-72
2022/11/07 03:20:54;;;;;;;5.05;2.40;;;16.90;99.90;;;;;;4150390;28;20299;-72
2022/11/07 03:22:56;;;;;;;6.00;2.63;;;16.90;99.90;;;;;;4151108;28;20221;-72
2022/11/07 03:24:58;;;;;;;6.70;2.70;;;16.90;99.90;;;;;;4147625;28;20240;-72
2022/11/07 03:27:01;;;;;;;3.53;2.13;;;16.90;99.90;;;;;;4147605;28;20283;-72
2022/11/07 03:29:05;;;;;;;5.38;2.50;;;16.90;99.90;;;;;;4149486;28;20225;-72
2022/11/07 03:31:07;;;;;;;5.10;2.53;;;16.90;99.90;;;;;;4150894;28;20235;-72
2022/11/07 03:33:09;;;;;;;4.63;2.35;;;16.90;99.90;;;;;;4148191;28;20263;-72
2022/11/07 03:35:12;;;;;;;4.72;2.42;;;16.90;99.90;;;;;;4151703;28;20283;-72
2022/11/07 03:37:15;;;;;;;5.18;2.38;;;16.90;99.90;;;;;;4145996;28;20221;-72
2022/11/07 03:39:17;;;;;;;4.68;2.30;;;16.90;99.90;;;;;;4149136;28;20560;-73
2022/11/07 03:41:19;;;;;;;4.97;2.20;;;16.90;99.90;;;;;;4150654;28;20248;-72
2022/11/07 03:43:22;;;;;;;5.05;2.45;;;16.90;99.90;;;;;;4149236;28;20391;-72
2022/11/07 03:45:25;;;;;;;4.38;2.40;;;16.80;99.90;;;;;;4147635;28;20216;-72
2022/11/07 03:47:27;;;;;;;7.85;2.90;;;16.90;99.90;;;;;;4149388;28;20268;-72
2022/11/07 03:49:30;;;;;;;5.10;2.38;;;16.90;99.90;;;;;;4148582;28;20631;-72
2022/11/07 03:51:32;;;;;;;5.15;2.33;;;16.90;99.90;;;;;;4148559;28;20220;-72
2022/11/07 03:53:35;;;;;;;5.32;2.42;;;16.90;99.90;;;;;;4147391;28;20253;-72
2022/11/07 03:55:37;;;;;;;5.03;2.70;;;16.90;99.90;;;;;;4148418;28;20214;-72
2022/11/07 03:57:39;;;;;;;6.35;2.65;;;16.90;99.90;;;;;;4147227;28;20674;-72
2022/11/07 03:59:42;;;;;;;7.07;2.60;;;16.90;99.90;;;;;;4149391;28;20988;-73
2022/11/07 04:01:46;;;;;;;5.40;2.60;;;16.90;99.90;;;;;;4148779;28;20240;-72
2022/11/07 04:03:48;;;;;;;4.22;2.35;;;16.90;99.90;;;;;;4148873;28;20236;-73
2022/11/07 04:05:50;;;;;;;4.60;2.15;;;16.90;99.90;;;;;;4150153;28;20229;-73
2022/11/07 04:07:53;;;;;;;3.20;1.95;;;16.90;99.90;;;;;;4149901;28;20224;-73
2022/11/07 04:09:55;;;;;;;3.70;2.00;;;16.90;99.90;;;;;;4148505;28;20225;-72
2022/11/07 04:19:00;;;;;;;5.25;1.92;;;16.90;99.90;;;;;;4147895;28;20193;-73
2022/11/07 04:21:02;;;;;;;5.25;2.13;;;16.90;99.90;;;;;;4147689;28;20297;-73
2022/11/07 04:23:04;;;;;;;6.00;2.22;;;16.90;99.90;;;;;;4149779;28;20286;-72
2022/11/07 04:25:08;;;;;;;4.38;2.38;;;16.90;99.90;;;;;;4150700;28;20216;-72
2022/11/07 04:29:30;;;;;;;4.32;2.03;;;16.90;99.90;;;;;;4149665;28;20217;-72
2022/11/07 04:31:33;;;;;;;3.70;2.15;;;16.90;99.90;;;;;;4148788;28;20287;-72
2022/11/07 04:33:35;;;;;;;6.80;2.40;;;16.90;99.90;;;;;;4150242;28;21081;-72
2022/11/07 04:35:38;;;;;;;5.45;2.55;;;16.90;99.90;;;;;;4151618;28;20243;-72
2022/11/07 04:37:41;;;;;;;4.30;2.03;;;16.90;99.90;;;;;;4149110;28;20325;-73
2022/11/07 04:39:43;;;;;;;6.60;2.53;;;16.90;99.90;;;;;;4152030;28;20613;-73
2022/11/07 04:41:45;;;;;;;4.18;2.42;;;16.90;99.90;;;;;;4150771;28;20298;-73
2022/11/07 04:43:48;;;;;;;4.15;2.30;;;16.90;99.90;;;;;;4151015;28;20278;-73
2022/11/07 04:45:50;;;;;;;5.57;2.65;;;16.90;99.90;;;;;;4149311;28;20216;-73
2022/11/07 04:47:53;;;;;;;5.95;2.38;;;16.90;99.90;;;;;;4150829;28;20216;-72
2022/11/07 04:49:55;;;;;;;7.45;2.80;;;16.90;99.90;;;;;;4150086;28;20212;-72
2022/11/07 04:51:59;;;;;;;4.70;2.35;;;16.90;99.90;;;;;;4149330;28;20675;-72
2022/11/07 04:54:01;;;;;;;5.13;2.28;;;16.90;99.90;;;;;;4148904;28;20661;-73
2022/11/07 04:56:03;;;;;;;4.20;1.88;;;16.90;99.90;;;;;;4143238;28;20267;-72
2022/11/07 04:58:06;;;;;;;6.53;2.40;;;16.90;99.90;;;;;;4149629;28;20225;-72
2022/11/07 05:00:09;;;;;;;4.07;2.22;;;16.90;99.90;;;;;;4146941;28;20239;-74
2022/11/07 05:02:11;;;;;;;6.53;2.35;;;16.90;99.90;;;;;;4144344;28;20229;-72
2022/11/07 05:04:14;;;;;;;3.75;1.90;;;16.80;99.90;;;;;;4146666;28;20276;-72
2022/11/07 05:06:16;;;;;;;4.85;2.13;;;16.90;99.90;;;;;;4148479;28;20263;-72
2022/11/07 05:08:20;;;;;;;6.10;2.50;;;16.90;99.90;;;;;;4144726;28;20221;-73
2022/11/07 05:10:25;;;;;;;4.93;2.28;;;16.90;99.90;;;;;;4145517;28;20263;-73
2022/11/07 05:12:27;;;;;;;5.00;2.30;;;16.90;99.90;;;;;;4147148;28;21625;-73
2022/11/07 05:14:30;;;;;;;5.93;2.40;;;16.90;99.90;;;;;;4150322;28;20220;-73
2022/11/07 05:16:33;;;;;;;5.75;2.30;;;16.90;99.90;;;;;;4147770;28;20228;-72
2022/11/07 05:18:35;;;;;;;3.65;2.38;;;16.90;99.90;;;;;;4148293;28;20280;-73
2022/11/07 05:20:39;;;;;;;4.03;2.40;;;16.90;99.90;;;;;;4149278;28;20271;-73
2022/11/07 05:25:03;;;;;;;5.10;2.25;;;16.90;99.90;;;;;;4148220;28;20208;-73
2022/11/07 05:27:06;;;;;;;4.75;2.38;;;16.90;99.90;;;;;;4150069;28;20262;-73
2022/11/07 05:29:11;;;;;;;7.00;2.50;;;16.90;99.90;;;;;;4148918;28;20270;-73
2022/11/07 05:31:15;;;;;;;5.10;2.15;;;16.90;99.90;;;;;;4146955;28;20221;-73
2022/11/07 05:33:19;;;;;;;4.32;2.30;;;16.90;99.90;;;;;;4147931;28;20224;-73
2022/11/07 05:35:21;;;;;;;5.00;2.45;;;16.90;99.90;;;;;;4148262;28;20217;-73
2022/11/07 05:37:23;;;;;;;4.65;2.00;;;16.90;99.90;;;;;;4149051;28;20224;-73
2022/11/07 05:39:26;;;;;;;5.70;2.10;;;16.90;99.90;;;;;;4150637;28;20324;-73
2022/11/07 05:41:29;;;;;;;4.30;2.33;;;16.90;99.90;;;;;;4150498;28;20236;-73
2022/11/07 05:43:31;;;;;;;6.13;2.40;;;16.90;99.90;;;;;;4148117;28;20726;-73
2022/11/07 05:45:36;;;;;;;5.80;2.08;;;16.90;99.90;;;;;;4150308;28;20228;-73
2022/11/07 05:47:38;;;;;;;4.97;2.10;;;16.90;99.90;;;;;;4147554;28;20213;-73
2022/11/07 05:49:40;;;;;;;5.60;2.15;;;16.90;99.90;;;;;;4148911;28;20220;-73
2022/11/07 05:51:43;;;;;;;6.72;2.50;;;16.90;99.90;;;;;;4143739;28;20255;-73
2022/11/07 05:53:45;;;;;;;4.35;2.20;;;16.90;99.90;;;;;;4147200;28;20232;-73
2022/11/07 05:55:48;;;;;;;4.50;2.10;;;16.80;99.90;;;;;;4146435;28;20629;-73
2022/11/07 05:57:52;;;;;;;3.55;1.92;;;16.90;99.90;;;;;;4149508;28;20220;-73
2022/11/07 05:59:54;;;;;;;5.22;2.42;;;16.90;99.90;;;;;;4147803;28;20221;-73
2022/11/07 06:01:56;;;;;;;6.45;2.30;;;16.90;99.90;;;;;;4149088;28;20310;-73
2022/11/07 06:03:58;;;;;;;4.00;2.00;;;16.90;99.90;;;;;;4148324;28;20292;-73
2022/11/07 06:06:01;;;;;;;5.80;2.40;;;16.90;99.90;;;;;;4147475;28;20264;-73
2022/11/07 06:08:03;;;;;;;4.50;2.35;;;16.90;99.90;;;;;;4146968;28;20222;-73
2022/11/07 06:10:07;;;;;;;6.22;2.50;;;16.90;99.90;;;;;;4145759;28;20735;-73
2022/11/07 06:12:09;;;;;;;7.78;2.90;;;16.90;99.90;;;;;;4147278;28;20221;-71
2022/11/07 06:14:13;;;;;;;8.18;2.55;;;16.90;99.90;;;;;;4148562;28;20270;-72
2022/11/07 06:16:15;;;;;;;4.25;1.95;;;16.80;99.90;;;;;;4148073;28;20331;-72
2022/11/07 06:18:20;;;;;;;4.93;2.38;;;16.90;99.90;;;;;;4145692;28;20232;-72
2022/11/07 06:20:22;;;;;;;6.07;2.25;;;16.90;99.90;;;;;;4149673;28;20217;-72
2022/11/07 06:22:24;;;;;;;5.05;2.33;;;16.90;99.90;;;;;;4150551;28;20240;-77
2022/11/07 06:24:27;;;;;;;4.38;2.33;;;16.90;99.90;;;;;;4151213;28;20323;-77
2022/11/07 06:26:29;;;;;;;5.22;2.15;;;16.90;99.90;;;;;;4150766;28;20224;-72
2022/11/07 06:28:31;;;;;;;4.78;2.22;;;16.90;99.90;;;;;;4152668;28;20658;-73
2022/11/07 06:30:35;;;;;;;6.68;2.15;;;16.90;99.90;;;;;;4155067;28;20762;-72
2022/11/07 06:32:42;;;;;;;4.78;2.22;;;16.90;99.90;;;;;;4153932;28;20204;-73
2022/11/07 06:34:45;;;;;;;4.00;2.00;;;16.80;99.90;;;;;;4151533;28;20229;-73
2022/11/07 06:36:51;;;;;;;5.50;2.28;;;16.90;99.90;;;;;;4149663;28;20303;-73
2022/11/07 06:38:54;;;;;;;5.40;2.25;;;16.90;99.90;;;;;;4147108;28;20348;-73
2022/11/07 06:40:56;;;;;;;6.32;2.45;;;16.80;99.90;;;;;;4151921;28;20263;-73
2022/11/07 06:43:06;;;;;;;5.75;2.10;;;16.90;99.90;;;;;;4152975;28;20666;-73
2022/11/07 06:45:10;;;;;;;4.60;2.25;;;16.90;99.90;;;;;;4144513;28;20263;-73
2022/11/07 06:47:14;;;;;;;4.28;2.10;;;16.90;99.90;;;;;;4151228;28;20212;-73
2022/11/07 06:49:16;;;;;;;6.97;2.05;;;17.00;99.90;;;;;;4150971;28;20724;-73
2022/11/07 06:51:18;;;;;;;4.63;2.00;;;17.00;99.90;;;;;;4151298;28;20660;-73
2022/11/07 06:53:21;;;;;;;5.78;2.60;;;17.00;99.90;;;;;;4152342;28;20217;-73
2022/11/07 06:55:23;;;;;;;4.50;2.45;;;17.00;99.90;;;;;;4153368;28;20276;-73
2022/11/07 06:57:29;;;;;;;5.30;2.28;;;17.10;99.90;;;;;;4154950;28;20326;-73
2022/11/07 06:59:31;;;;;;;5.43;1.98;;;17.10;99.90;;;;;;4151036;28;20646;-73
2022/11/07 07:01:33;;;;;;;6.68;2.10;;;17.10;99.90;;;;;;4150007;28;20225;-73
2022/11/07 07:03:37;;;;;;;5.25;2.50;;;17.10;99.90;;;;;;4149573;28;20364;-73
2022/11/07 07:05:39;;;;;;;4.50;1.98;;;17.20;99.90;;;;;;4150787;28;20290;-73
2022/11/07 07:07:44;;;;;;;4.78;2.20;;;17.20;99.90;;;;;;4151441;28;20290;-73
2022/11/07 07:09:46;;;;;;;7.25;2.22;;;17.20;99.90;;;;;;4152401;28;20233;-73
2022/11/07 07:11:48;;;;;;;6.63;2.50;;;17.20;99.90;;;;;;4147452;28;20225;-73
2022/11/07 07:13:51;;;;;;;4.10;2.05;;;17.20;99.90;;;;;;4150131;28;20283;-73
2022/11/07 07:15:54;;;;;;;3.75;2.30;;;17.30;99.90;;;;;;4151553;28;20275;-73
2022/11/07 07:17:59;;;;;;;4.88;2.15;;;17.30;99.90;;;;;;4145804;28;20225;-73
2022/11/07 07:20:04;;;;;;;5.75;2.47;;;17.30;99.90;;;;;;4148144;28;20217;-73
2022/11/07 07:22:06;;;;;;;3.78;2.17;;;17.30;99.90;;;;;;4150812;28;20224;-73
2022/11/07 07:24:08;;;;;;;5.55;2.35;;;17.30;99.90;;;;;;4148190;28;20220;-73
2022/11/07 07:26:13;;;;;;;4.68;2.08;;;17.40;99.90;;;;;;4145749;28;20295;-73
2022/11/07 07:28:15;;;;;;;5.95;2.50;;;17.40;99.90;;;;;;4150330;28;20228;-73
2022/11/07 07:30:18;;;;;;;5.35;1.95;;;17.40;99.90;;;;;;4148149;28;20244;-74
2022/11/07 07:32:20;;;;;;;3.92;1.95;;;17.40;99.90;;;;;;4151523;28;20221;-73
2022/11/07 07:34:22;;;;;;;6.13;1.92;;;17.40;99.90;;;;;;4148797;28;20282;-72
2022/11/07 07:36:26;;;;;;;6.30;1.88;;;17.50;99.90;;;;;;4150945;28;20239;-78
2022/11/07 07:38:30;;;;;;;5.53;2.00;;;17.50;99.90;;;;;;4152391;28;20216;-77
2022/11/07 07:40:32;;;;;;;5.18;2.10;;;17.50;99.90;;;;;;4151738;28;20224;-78
2022/11/07 07:42:34;;;;;;;4.82;1.95;;;17.50;99.90;;;;;;4155069;28;20317;-80
2022/11/07 07:44:36;;;;;;;7.97;2.55;;;17.60;99.90;;;;;;4148331;28;20225;-76
2022/11/07 07:46:39;;;;;;;6.35;2.42;;;17.50;99.90;;;;;;4147344;28;20213;-76
2022/11/07 07:48:41;;;;;;;10.45;2.78;;;17.40;99.90;;;;;;4145757;28;20222;-76
2022/11/07 07:50:43;;;;;;;7.45;2.25;;;17.50;99.90;;;;;;4146475;28;20247;-74
2022/11/07 07:52:47;;;;;;;18.30;2.90;;;17.60;99.90;;;;;;4132259;28;20213;-72
2022/11/07 07:54:49;;;;;;;11.23;2.50;;;17.60;99.90;;;;;;4132137;28;20264;-73
2022/11/07 07:56:51;;;;;;;12.25;3.33;;;17.70;99.90;;;;;;4133023;28;20221;-73
2022/11/07 07:58:54;;;;;;;12.85;3.22;;;17.80;99.90;;;;;;4130114;28;20222;-70
2022/11/07 08:00:57;;;;;;;16.58;3.20;;;18.00;99.90;;;;;;4128612;28;20213;-71
2022/11/07 08:03:01;;;;;;;9.68;2.67;;;18.20;99.90;;;;;;4131621;28;20709;-73
2022/11/07 08:05:03;;;;;;;13.77;2.75;;;18.30;99.90;;;;;;4128724;28;20233;-72
2022/11/07 08:07:05;;;;;;;8.32;2.65;;;18.40;99.90;;;;;;4122394;28;20221;-74
2022/11/07 08:09:09;;;;;;;15.05;2.83;;;18.50;99.90;;;;;;4125038;28;20228;-73
2022/11/07 08:11:11;;;;;;;17.13;3.08;;;18.60;99.90;;;;;;4123201;28;20316;-74
2022/11/07 08:13:15;;;;;;;13.98;3.05;;;18.60;99.90;;;;;;4136870;28;20252;-75
2022/11/07 08:15:19;;;;;;;9.15;2.80;;;18.70;99.90;;;;;;4120807;28;20221;-74
2022/11/07 08:17:21;;;;;;;8.63;2.75;;;18.70;99.90;;;;;;4123521;28;20271;-74
2022/11/07 08:19:25;;;;;;;11.23;2.60;;;18.80;99.90;;;;;;4122206;28;20311;-76
2022/11/07 08:21:27;;;;;;;10.20;2.92;;;18.80;99.90;;;;;;4125116;28;20302;-76
2022/11/07 08:23:30;;;;;;;10.95;2.58;;;18.90;99.90;;;;;;4130318;28;20842;-77
2022/11/07 08:25:34;;;;;;;10.50;2.92;;;18.80;99.90;;;;;;4125929;28;20678;-77
2022/11/07 08:27:36;;;;;;;10.35;2.72;;;18.90;99.90;;;;;;4128529;28;20244;-75
2022/11/07 08:29:39;;;;;;;12.25;2.78;;;19.00;99.90;;;;;;4127271;28;20308;-76
2022/11/07 08:31:41;;;;;;;7.28;2.42;;;19.10;99.90;;;;;;4123495;28;20224;-74
2022/11/07 08:33:43;;;;;;;8.05;2.53;;;19.10;99.90;;;;;;4123343;28;20221;-73
2022/11/07 08:35:45;;;;;;;13.52;2.40;;;19.20;99.90;;;;;;4122538;28;20222;-78
2022/11/07 08:37:48;;;;;;;14.75;2.88;;;19.00;99.90;;;;;;4122296;28;20222;-73
2022/11/07 08:39:50;;;;;;;10.70;2.80;;;19.00;99.90;;;;;;4116927;28;20221;-74
2022/11/07 08:41:54;;;;;;;12.57;3.05;;;19.00;99.90;;;;;;4129477;28;20213;-75
2022/11/07 08:43:56;;;;;;;17.33;3.10;;;19.10;99.90;;;;;;4125087;28;20284;-74
2022/11/07 08:45:59;;;;;;;15.68;3.28;;;19.30;99.90;;;;;;4124177;28;20219;-71
2022/11/07 08:48:01;;;;;;;7.88;2.28;;;19.40;99.90;;;;;;4125269;28;20271;-72
2022/11/07 08:50:04;;;;;;;9.27;2.80;;;19.50;99.90;;;;;;4122306;28;20221;-72
2022/11/07 08:52:06;;;;;;;9.07;2.55;;;19.40;99.90;;;;;;4130746;28;20279;-75
2022/11/07 08:54:08;;;;;;;7.28;2.30;;;19.40;99.90;;;;;;4125719;28;20267;-74
2022/11/07 08:56:11;;;;;;;8.30;2.90;;;19.50;99.90;;;;;;4123007;28;20281;-73
2022/11/07 08:58:14;;;;;;;12.13;2.90;;;19.60;99.90;;;;;;4127356;28;20217;-72
2022/11/07 09:00:17;;;;;;;9.65;2.50;;;19.60;99.90;;;;;;4126355;28;20213;-72
2022/11/07 09:02:20;;;;;;;11.70;2.85;;;19.70;99.90;;;;;;4128130;28;20221;-72
2022/11/07 09:04:22;;;;;;;9.75;2.72;;;19.70;99.90;;;;;;4125875;28;20338;-72
2022/11/07 09:06:24;;;;;;;8.85;2.63;;;19.70;99.90;;;;;;4126128;28;21093;-72
2022/11/07 09:08:27;;;;;;;6.05;2.45;;;19.70;99.90;;;;;;4124702;28;20291;-72
2022/11/07 09:10:29;;;;;;;9.57;2.47;;;19.70;99.90;;;;;;4128761;28;20324;-73
2022/11/07 09:12:32;;;;;;;5.93;2.35;;;19.80;99.90;;;;;;4125125;28;20702;-72
2022/11/07 09:14:35;;;;;;;10.98;2.67;;;19.80;99.90;;;;;;4122756;28;20623;-72
2022/11/07 09:16:38;;;;;;;8.75;2.40;;;19.80;99.90;;;;;;4123738;28;20221;-74
2022/11/07 09:18:40;;;;;;;19.20;2.70;;;19.80;99.90;;;;;;4123847;28;20706;-72
2022/11/07 09:20:43;;;;;;;11.35;2.60;;;19.80;99.90;;;;;;4113747;28;20264;-73
2022/11/07 09:22:46;;;;;;;12.80;2.63;;;19.80;99.90;;;;;;4112370;28;20267;-72
2022/11/07 09:24:48;;;;;;;15.35;2.70;;;19.90;99.90;;;;;;4122188;28;20228;-74
2022/11/07 09:26:50;;;;;;;11.70;2.85;;;20.00;99.90;;;;;;4126787;28;20311;-74
2022/11/07 09:28:53;;;;;;;6.90;2.22;;;20.10;99.90;;;;;;4135160;28;20213;-74
2022/11/07 09:30:59;;;;;;;10.65;2.65;;;20.00;99.90;;;;;;4136590;28;20703;-78
2022/11/07 09:33:01;;;;;;;12.27;2.60;;;19.90;99.90;;;;;;4130525;28;20217;-74
2022/11/07 09:35:04;;;;;;;9.57;2.63;;;19.90;99.90;;;;;;4137148;28;20302;-73
2022/11/07 09:37:06;;;;;;;8.80;2.63;;;20.00;99.90;;;;;;4140189;28;20267;-74
2022/11/07 09:39:08;;;;;;;8.27;2.33;;;20.10;99.90;;;;;;4136310;28;20241;-73
2022/11/07 09:41:25;;;;;;;9.05;2.63;;;20.10;99.90;;;;;;4137564;28;20256;-74
2022/11/07 09:44:03;;;;;;;11.02;2.25;;;20.20;99.90;;;;;;4137304;28;20241;-73
2022/11/07 09:46:22;;;;;;;7.13;2.67;;;20.30;99.90;;;;;;4133523;28;20225;-72
2022/11/07 09:48:31;;;;;;;8.00;2.53;;;20.00;99.90;;;;;;4133352;28;20633;-71
2022/11/07 09:50:37;;;;;;;8.13;2.30;;;20.00;99.90;;;;;;4136166;28;20271;-73
2022/11/07 09:52:43;;;;;;;10.77;2.63;;;20.10;99.90;;;;;;4130539;28;20303;-73
2022/11/07 09:54:51;;;;;;;8.90;2.45;;;20.30;99.90;;;;;;4129671;28;20217;-72
2022/11/07 09:56:56;;;;;;;8.45;2.40;;;20.40;99.90;;;;;;4141327;28;20228;-72
2022/11/07 09:59:05;;;;;;;10.32;2.25;;;20.40;99.90;;;;;;4142317;28;20264;-72
2022/11/07 10:01:14;;;;;;;11.25;2.80;;;20.40;99.90;;;;;;4142165;28;20282;-71
2022/11/07 10:03:16;;;;;;;6.55;2.33;;;20.50;99.90;;;;;;4144644;28;20224;-71
2022/11/07 10:05:28;;;;;;;8.82;2.35;;;20.40;99.90;;;;;;4115579;28;20750;-72
2022/11/07 10:07:43;;;;;;;7.55;2.08;;;20.50;99.90;;;;;;4114950;28;20284;-70
2022/11/07 10:09:52;;;;;;;8.02;2.50;;;20.50;99.90;;;;;;4114522;28;20218;-72
2022/11/07 10:12:05;;;;;;;9.00;2.28;;;20.50;99.90;;;;;;4108858;28;20662;-72
2022/11/07 10:14:20;;;;;;;12.77;2.65;;;20.60;99.90;;;;;;4112042;28;20269;-72
2022/11/07 10:16:33;;;;;;;7.45;2.03;;;20.60;99.90;;;;;;4108602;28;21061;-74
2022/11/07 10:18:46;;;;;;;8.85;2.33;;;20.60;99.90;;;;;;4110491;28;20284;-74
2022/11/07 10:20:58;;;;;;;8.23;2.65;;;20.60;99.90;;;;;;4112619;28;20222;-73
2022/11/07 10:23:18;;;;;;;6.80;2.63;;;20.60;99.90;;;;;;4113016;28;20210;-73
2022/11/07 10:25:27;;;;;;;8.10;2.17;;;20.60;99.90;;;;;;4113987;28;20300;-73
2022/11/07 10:27:29;;;;;;;7.50;1.83;;;20.70;99.90;;;;;;4110332;28;21049;-73
2022/11/07 10:29:41;;;;;;;6.82;2.20;;;20.70;99.90;;;;;;4112821;28;20214;-74
2022/11/07 10:31:55;;;;;;;6.43;2.17;;;20.70;99.90;;;;;;4111722;28;20241;-72
2022/11/07 10:34:02;;;;;;;7.28;2.03;;;20.60;99.90;;;;;;4114458;28;20276;-72
2022/11/07 10:36:16;;;;;;;11.23;2.92;;;20.50;99.90;;;;;;4112508;28;20269;-73
2022/11/07 10:38:25;;;;;;;6.35;2.33;;;20.60;99.90;;;;;;4113000;28;20222;-72
2022/11/07 10:40:33;;;;;;;8.18;2.10;;;20.60;99.90;;;;;;4113320;28;20218;-73
2022/11/07 10:42:35;;;;;;;5.38;2.20;;;20.50;99.90;;;;;;4110851;28;20217;-72
2022/11/07 10:44:41;;;;;;;5.72;2.05;;;20.50;99.90;;;;;;4114923;28;20234;-72
2022/11/07 10:46:47;;;;;;;10.63;2.67;;;20.50;99.90;;;;;;4110757;28;20222;-72
2022/11/07 10:49:00;;;;;;;6.13;2.33;;;20.60;99.90;;;;;;4110361;28;20215;-72
2022/11/07 10:51:04;;;;;;;7.00;2.50;;;20.60;99.90;;;;;;4111238;28;20256;-72
2022/11/07 10:53:08;;;;;;;9.43;2.42;;;20.60;99.90;;;;;;4110260;28;20637;-73
2022/11/07 10:55:16;;;;;;;7.03;2.45;;;20.60;99.90;;;;;;4110436;28;20257;-73
2022/11/07 10:57:20;;;;;;;5.25;1.90;;;20.60;99.90;;;;;;4109428;28;20226;-73
2022/11/07 10:59:26;;;;;;;7.90;2.33;;;20.60;99.90;;;;;;4110851;28;20277;-72